sensor_id;sensor_type;location;lat;lon;timestamp;temperature;humidity
36132;DHT22;22185;48.738;9.324;2023-01-10T00:00:04;5.90;99.90
36132;DHT22;22185;48.738;9.324;2023-01-10T00:02:06;5.80;99.90
36132;DHT22;22185;48.738;9.324;2023-01-10T00:04:08;5.70;99.90
36132;DHT22;22185;48.738;9.324;2023-01-10T00:06:10;5.70;99.90
36132;DHT22;22185;48.738;9.324;2023-01-10T00:08:16;5.80;99.90
36132;DHT22;22185;48.738;9.324;2023-01-10T00:10:18;5.80;99.90
36132;DHT22;22185;48.738;9.324;2023-01-10T00:12:19;5.60;99.90
36132;DHT22;22185;48.738;9.324;2023-01-10T00:14:40;5.70;99.90
36132;DHT22;22185;48.738;9.324;2023-01-10T00:16:42;5.70;99.90
36132;DHT22;22185;48.738;9.324;2023-01-10T00:18:43;5.70;99.90
36132;DHT22;22185;48.738;9.324;2023-01-10T00:20:46;5.70;99.90
36132;DHT22;22185;48.738;9.324;2023-01-10T00:22:49;5.70;99.90
36132;DHT22;22185;48.738;9.324;2023-01-10T00:24:51;5.70;99.90
36132;DHT22;22185;48.738;9.324;2023-01-10T00:26:53;5.70;99.90
36132;DHT22;22185;48.738;9.324;2023-01-10T00:28:56;5.80;99.90
36132;DHT22;22185;48.738;9.324;2023-01-10T00:31:01;5.80;99.90
36132;DHT22;22185;48.738;9.324;2023-01-10T00:33:08;5.80;99.90
36132;DHT22;22185;48.738;9.324;2023-01-10T00:35:12;5.80;99.90
36132;DHT22;22185;48.738;9.324;2023-01-10T00:37:14;5.80;99.90
36132;DHT22;22185;48.738;9.324;2023-01-10T00:39:16;5.80;99.90
36132;DHT22;22185;48.738;9.324;2023-01-10T00:41:21;5.80;99.90
36132;DHT22;22185;48.738;9.324;2023-01-10T00:43:45;5.90;99.90
36132;DHT22;22185;48.738;9.324;2023-01-10T00:45:59;5.80;99.90
36132;DHT22;22185;48.738;9.324;2023-01-10T00:48:03;5.70;99.90
36132;DHT22;22185;48.738;9.324;2023-01-10T00:50:05;5.80;99.90
36132;DHT22;22185;48.738;9.324;2023-01-10T00:52:09;5.70;99.90
36132;DHT22;22185;48.738;9.324;2023-01-10T00:54:43;5.70;99.90
36132;DHT22;22185;48.738;9.324;2023-01-10T00:56:53;5.70;99.90
36132;DHT22;22185;48.738;9.324;2023-01-10T00:58:55;5.80;99.90
36132;DHT22;22185;48.738;9.324;2023-01-10T01:00:56;5.80;99.90
36132;DHT22;22185;48.738;9.324;2023-01-10T01:02:58;5.80;99.90
36132;DHT22;22185;48.738;9.324;2023-01-10T01:05:00;5.80;99.90
36132;DHT22;22185;48.738;9.324;2023-01-10T01:07:02;5.80;99.90
36132;DHT22;22185;48.738;9.324;2023-01-10T01:09:03;5.80;99.90
36132;DHT22;22185;48.738;9.324;2023-01-10T01:11:05;5.80;99.90
36132;DHT22;22185;48.738;9.324;2023-01-10T01:13:18;5.80;99.90
36132;DHT22;22185;48.738;9.324;2023-01-10T01:15:21;5.80;99.90
36132;DHT22;22185;48.738;9.324;2023-01-10T01:17:22;5.80;99.90
36132;DHT22;22185;48.738;9.324;2023-01-10T01:19:24;5.80;99.90
36132;DHT22;22185;48.738;9.324;2023-01-10T01:21:26;5.80;99.90
36132;DHT22;22185;48.738;9.324;2023-01-10T01:23:29;5.80;99.90
36132;DHT22;22185;48.738;9.324;2023-01-10T01:25:31;5.80;99.90
36132;DHT22;22185;48.738;9.324;2023-01-10T01:27:33;5.80;99.90
36132;DHT22;22185;48.738;9.324;2023-01-10T01:29:35;5.80;99.90
36132;DHT22;22185;48.738;9.324;2023-01-10T01:31:44;5.80;99.90
36132;DHT22;22185;48.738;9.324;2023-01-10T01:33:46;5.80;99.90
36132;DHT22;22185;48.738;9.324;2023-01-10T01:35:48;5.70;99.90
36132;DHT22;22185;48.738;9.324;2023-01-10T01:37:51;5.70;99.90
36132;DHT22;22185;48.738;9.324;2023-01-10T01:39:52;5.70;99.90
36132;DHT22;22185;48.738;9.324;2023-01-10T01:41:54;5.70;99.90
36132;DHT22;22185;48.738;9.324;2023-01-10T01:44:02;5.70;99.90
36132;DHT22;22185;48.738;9.324;2023-01-10T01:46:04;5.70;99.90
36132;DHT22;22185;48.738;9.324;2023-01-10T01:52:29;5.70;99.90
36132;DHT22;22185;48.738;9.324;2023-01-10T01:54:35;5.70;99.90
36132;DHT22;22185;48.738;9.324;2023-01-10T01:56:38;5.70;99.90
36132;DHT22;22185;48.738;9.324;2023-01-10T02:00:48;5.80;99.90
36132;DHT22;22185;48.738;9.324;2023-01-10T02:02:56;5.80;99.90
36132;DHT22;22185;48.738;9.324;2023-01-10T02:05:11;5.90;99.90
36132;DHT22;22185;48.738;9.324;2023-01-10T02:07:16;5.90;99.90
36132;DHT22;22185;48.738;9.324;2023-01-10T02:09:28;5.80;99.90
36132;DHT22;22185;48.738;9.324;2023-01-10T02:11:33;5.80;99.90
36132;DHT22;22185;48.738;9.324;2023-01-10T02:13:40;5.80;99.90
36132;DHT22;22185;48.738;9.324;2023-01-10T02:15:43;5.80;99.90
36132;DHT22;22185;48.738;9.324;2023-01-10T02:17:49;5.80;99.90
36132;DHT22;22185;48.738;9.324;2023-01-10T02:24:12;5.90;99.90
36132;DHT22;22185;48.738;9.324;2023-01-10T02:32:44;5.70;99.90
36132;DHT22;22185;48.738;9.324;2023-01-10T02:38:08;5.80;99.90
36132;DHT22;22185;48.738;9.324;2023-01-10T02:40:33;5.90;99.90
36132;DHT22;22185;48.738;9.324;2023-01-10T02:45:22;5.90;99.90
36132;DHT22;22185;48.738;9.324;2023-01-10T02:47:25;5.80;99.90
36132;DHT22;22185;48.738;9.324;2023-01-10T02:49:27;5.80;99.90
36132;DHT22;22185;48.738;9.324;2023-01-10T02:51:30;5.80;99.90
36132;DHT22;22185;48.738;9.324;2023-01-10T02:53:42;5.80;99.90
36132;DHT22;22185;48.738;9.324;2023-01-10T03:10:06;5.60;99.90
36132;DHT22;22185;48.738;9.324;2023-01-10T03:14:28;5.60;99.90
36132;DHT22;22185;48.738;9.324;2023-01-10T03:16:31;5.50;99.90
36132;DHT22;22185;48.738;9.324;2023-01-10T03:20:55;5.50;99.90
36132;DHT22;22185;48.738;9.324;2023-01-10T03:23:01;5.60;99.90
36132;DHT22;22185;48.738;9.324;2023-01-10T03:25:07;5.50;99.90
36132;DHT22;22185;48.738;9.324;2023-01-10T03:27:28;5.50;99.90
36132;DHT22;22185;48.738;9.324;2023-01-10T03:29:56;5.50;99.90
36132;DHT22;22185;48.738;9.324;2023-01-10T03:32:03;5.50;99.90
36132;DHT22;22185;48.738;9.324;2023-01-10T03:34:06;5.50;99.90
36132;DHT22;22185;48.738;9.324;2023-01-10T03:38:34;5.50;99.90
36132;DHT22;22185;48.738;9.324;2023-01-10T03:40:58;5.50;99.90
36132;DHT22;22185;48.738;9.324;2023-01-10T03:43:10;5.50;99.90
36132;DHT22;22185;48.738;9.324;2023-01-10T03:45:39;5.50;99.90
36132;DHT22;22185;48.738;9.324;2023-01-10T03:47:45;5.60;99.90
36132;DHT22;22185;48.738;9.324;2023-01-10T03:49:53;5.60;99.90
36132;DHT22;22185;48.738;9.324;2023-01-10T03:51:56;5.60;99.90
36132;DHT22;22185;48.738;9.324;2023-01-10T03:54:00;5.60;99.90
36132;DHT22;22185;48.738;9.324;2023-01-10T03:56:03;5.60;99.90
36132;DHT22;22185;48.738;9.324;2023-01-10T03:58:04;5.60;99.90
36132;DHT22;22185;48.738;9.324;2023-01-10T04:00:08;5.60;99.90
36132;DHT22;22185;48.738;9.324;2023-01-10T04:02:11;5.60;99.90
36132;DHT22;22185;48.738;9.324;2023-01-10T04:04:14;5.60;99.90
36132;DHT22;22185;48.738;9.324;2023-01-10T04:06:16;5.60;99.90
36132;DHT22;22185;48.738;9.324;2023-01-10T04:08:18;5.60;99.90
36132;DHT22;22185;48.738;9.324;2023-01-10T04:10:20;5.60;99.90
36132;DHT22;22185;48.738;9.324;2023-01-10T04:12:22;5.60;99.90
36132;DHT22;22185;48.738;9.324;2023-01-10T04:14:24;5.60;99.90
36132;DHT22;22185;48.738;9.324;2023-01-10T04:16:26;5.60;99.90
36132;DHT22;22185;48.738;9.324;2023-01-10T04:18:27;5.60;99.90
36132;DHT22;22185;48.738;9.324;2023-01-10T04:20:29;5.60;99.90
36132;DHT22;22185;48.738;9.324;2023-01-10T04:22:31;5.50;99.90
36132;DHT22;22185;48.738;9.324;2023-01-10T04:24:33;5.50;99.90
36132;DHT22;22185;48.738;9.324;2023-01-10T04:26:35;5.40;99.90
36132;DHT22;22185;48.738;9.324;2023-01-10T04:28:37;5.50;99.90
36132;DHT22;22185;48.738;9.324;2023-01-10T04:30:38;5.50;99.90
36132;DHT22;22185;48.738;9.324;2023-01-10T04:32:40;5.50;99.90
36132;DHT22;22185;48.738;9.324;2023-01-10T04:34:42;5.50;99.90
36132;DHT22;22185;48.738;9.324;2023-01-10T04:36:44;5.50;99.90
36132;DHT22;22185;48.738;9.324;2023-01-10T04:38:46;5.50;99.90
36132;DHT22;22185;48.738;9.324;2023-01-10T04:40:53;5.50;99.90
36132;DHT22;22185;48.738;9.324;2023-01-10T04:42:55;5.50;99.90
36132;DHT22;22185;48.738;9.324;2023-01-10T04:44:56;5.50;99.90
36132;DHT22;22185;48.738;9.324;2023-01-10T04:46:58;5.50;99.90
36132;DHT22;22185;48.738;9.324;2023-01-10T04:49:00;5.50;99.90
36132;DHT22;22185;48.738;9.324;2023-01-10T04:51:02;5.50;99.90
36132;DHT22;22185;48.738;9.324;2023-01-10T04:53:04;5.50;99.90
36132;DHT22;22185;48.738;9.324;2023-01-10T04:55:06;5.40;99.90
36132;DHT22;22185;48.738;9.324;2023-01-10T04:57:08;5.40;99.90
36132;DHT22;22185;48.738;9.324;2023-01-10T04:59:10;5.30;99.90
36132;DHT22;22185;48.738;9.324;2023-01-10T05:01:14;5.30;99.90
36132;DHT22;22185;48.738;9.324;2023-01-10T05:03:16;5.30;99.90
36132;DHT22;22185;48.738;9.324;2023-01-10T05:05:20;5.30;99.90
36132;DHT22;22185;48.738;9.324;2023-01-10T05:07:22;5.30;99.90
36132;DHT22;22185;48.738;9.324;2023-01-10T05:09:24;5.20;99.90
36132;DHT22;22185;48.738;9.324;2023-01-10T05:11:26;5.20;99.90
36132;DHT22;22185;48.738;9.324;2023-01-10T05:13:27;5.20;99.90
36132;DHT22;22185;48.738;9.324;2023-01-10T05:15:29;5.20;99.90
36132;DHT22;22185;48.738;9.324;2023-01-10T05:17:31;5.10;99.90
36132;DHT22;22185;48.738;9.324;2023-01-10T05:19:33;5.10;99.90
36132;DHT22;22185;48.738;9.324;2023-01-10T05:21:35;5.10;99.90
36132;DHT22;22185;48.738;9.324;2023-01-10T05:23:38;5.00;99.90
36132;DHT22;22185;48.738;9.324;2023-01-10T05:25:40;5.00;99.90
36132;DHT22;22185;48.738;9.324;2023-01-10T05:27:41;4.90;99.90
36132;DHT22;22185;48.738;9.324;2023-01-10T05:29:44;4.90;99.90
36132;DHT22;22185;48.738;9.324;2023-01-10T05:31:45;4.90;99.90
36132;DHT22;22185;48.738;9.324;2023-01-10T05:33:49;4.90;99.90
36132;DHT22;22185;48.738;9.324;2023-01-10T05:35:51;4.90;99.90
36132;DHT22;22185;48.738;9.324;2023-01-10T05:37:53;5.00;99.90
36132;DHT22;22185;48.738;9.324;2023-01-10T05:39:54;4.90;99.90
36132;DHT22;22185;48.738;9.324;2023-01-10T05:41:56;5.00;99.90
36132;DHT22;22185;48.738;9.324;2023-01-10T05:43:58;5.10;99.90
36132;DHT22;22185;48.738;9.324;2023-01-10T05:46:00;5.30;99.90
36132;DHT22;22185;48.738;9.324;2023-01-10T05:48:02;5.30;99.90
36132;DHT22;22185;48.738;9.324;2023-01-10T05:50:04;5.30;99.90
36132;DHT22;22185;48.738;9.324;2023-01-10T05:52:05;5.30;99.90
36132;DHT22;22185;48.738;9.324;2023-01-10T05:54:07;5.20;99.90
36132;DHT22;22185;48.738;9.324;2023-01-10T05:56:09;5.20;99.90
36132;DHT22;22185;48.738;9.324;2023-01-10T05:58:11;5.20;99.90
36132;DHT22;22185;48.738;9.324;2023-01-10T06:00:14;5.10;99.90
36132;DHT22;22185;48.738;9.324;2023-01-10T06:02:15;5.10;99.90
36132;DHT22;22185;48.738;9.324;2023-01-10T06:04:17;5.10;99.90
36132;DHT22;22185;48.738;9.324;2023-01-10T06:06:19;5.10;99.90
36132;DHT22;22185;48.738;9.324;2023-01-10T06:08:22;5.00;99.90
36132;DHT22;22185;48.738;9.324;2023-01-10T06:10:24;5.10;99.90
36132;DHT22;22185;48.738;9.324;2023-01-10T06:12:30;5.10;99.90
36132;DHT22;22185;48.738;9.324;2023-01-10T06:14:32;5.10;99.90
36132;DHT22;22185;48.738;9.324;2023-01-10T06:16:34;5.10;99.90
36132;DHT22;22185;48.738;9.324;2023-01-10T06:18:36;5.20;99.90
36132;DHT22;22185;48.738;9.324;2023-01-10T06:20:38;5.20;99.90
36132;DHT22;22185;48.738;9.324;2023-01-10T06:22:40;5.20;99.90
36132;DHT22;22185;48.738;9.324;2023-01-10T06:24:42;5.40;99.90
36132;DHT22;22185;48.738;9.324;2023-01-10T06:26:44;5.40;99.90
36132;DHT22;22185;48.738;9.324;2023-01-10T06:28:46;5.50;99.90
36132;DHT22;22185;48.738;9.324;2023-01-10T06:30:48;5.50;99.90
36132;DHT22;22185;48.738;9.324;2023-01-10T06:32:50;5.40;99.90
36132;DHT22;22185;48.738;9.324;2023-01-10T06:34:52;5.50;99.90
36132;DHT22;22185;48.738;9.324;2023-01-10T06:36:54;5.50;99.90
36132;DHT22;22185;48.738;9.324;2023-01-10T06:38:56;5.60;99.90
36132;DHT22;22185;48.738;9.324;2023-01-10T06:40:57;5.50;99.90
36132;DHT22;22185;48.738;9.324;2023-01-10T06:42:59;5.60;99.90
36132;DHT22;22185;48.738;9.324;2023-01-10T06:45:01;5.70;99.90
36132;DHT22;22185;48.738;9.324;2023-01-10T06:47:11;5.70;99.90
36132;DHT22;22185;48.738;9.324;2023-01-10T06:49:13;5.70;99.90
36132;DHT22;22185;48.738;9.324;2023-01-10T06:51:15;5.70;99.90
36132;DHT22;22185;48.738;9.324;2023-01-10T06:53:20;5.70;99.90
36132;DHT22;22185;48.738;9.324;2023-01-10T06:55:23;5.70;99.90
36132;DHT22;22185;48.738;9.324;2023-01-10T06:57:25;5.70;99.90
36132;DHT22;22185;48.738;9.324;2023-01-10T06:59:28;5.70;99.90
36132;DHT22;22185;48.738;9.324;2023-01-10T07:01:30;5.70;99.90
36132;DHT22;22185;48.738;9.324;2023-01-10T07:03:32;5.60;99.90
36132;DHT22;22185;48.738;9.324;2023-01-10T07:05:34;5.60;99.90
36132;DHT22;22185;48.738;9.324;2023-01-10T07:07:36;5.60;99.90
36132;DHT22;22185;48.738;9.324;2023-01-10T07:09:38;5.60;99.90
36132;DHT22;22185;48.738;9.324;2023-01-10T07:11:39;5.70;99.90
36132;DHT22;22185;48.738;9.324;2023-01-10T07:13:41;5.70;99.90
36132;DHT22;22185;48.738;9.324;2023-01-10T07:15:43;5.70;99.90
36132;DHT22;22185;48.738;9.324;2023-01-10T07:17:45;5.70;99.90
36132;DHT22;22185;48.738;9.324;2023-01-10T07:19:47;5.70;99.90
36132;DHT22;22185;48.738;9.324;2023-01-10T07:21:48;5.70;99.90
36132;DHT22;22185;48.738;9.324;2023-01-10T07:23:50;5.70;99.90
36132;DHT22;22185;48.738;9.324;2023-01-10T07:25:52;5.70;99.90
36132;DHT22;22185;48.738;9.324;2023-01-10T07:27:54;5.70;99.90
36132;DHT22;22185;48.738;9.324;2023-01-10T07:29:56;5.70;99.90
36132;DHT22;22185;48.738;9.324;2023-01-10T07:31:58;5.70;99.90
36132;DHT22;22185;48.738;9.324;2023-01-10T07:33:59;5.70;99.90
36132;DHT22;22185;48.738;9.324;2023-01-10T07:36:02;5.70;99.90
36132;DHT22;22185;48.738;9.324;2023-01-10T07:38:03;5.60;99.90
36132;DHT22;22185;48.738;9.324;2023-01-10T07:40:06;5.60;99.90
36132;DHT22;22185;48.738;9.324;2023-01-10T07:42:08;5.60;99.90
36132;DHT22;22185;48.738;9.324;2023-01-10T07:44:10;5.60;99.90
36132;DHT22;22185;48.738;9.324;2023-01-10T07:46:12;5.70;99.90
36132;DHT22;22185;48.738;9.324;2023-01-10T07:48:14;5.70;99.90
36132;DHT22;22185;48.738;9.324;2023-01-10T07:50:15;5.60;99.90
36132;DHT22;22185;48.738;9.324;2023-01-10T07:52:18;5.70;99.90
36132;DHT22;22185;48.738;9.324;2023-01-10T07:54:20;5.70;99.90
36132;DHT22;22185;48.738;9.324;2023-01-10T07:56:23;5.70;99.90
36132;DHT22;22185;48.738;9.324;2023-01-10T07:58:25;5.70;99.90
36132;DHT22;22185;48.738;9.324;2023-01-10T08:00:27;5.80;99.90
36132;DHT22;22185;48.738;9.324;2023-01-10T08:02:29;5.70;99.90
36132;DHT22;22185;48.738;9.324;2023-01-10T08:04:33;5.80;99.90
36132;DHT22;22185;48.738;9.324;2023-01-10T08:06:35;5.80;99.90
36132;DHT22;22185;48.738;9.324;2023-01-10T08:08:38;5.70;99.90
36132;DHT22;22185;48.738;9.324;2023-01-10T08:10:40;5.80;99.90
36132;DHT22;22185;48.738;9.324;2023-01-10T08:12:42;5.80;99.90
36132;DHT22;22185;48.738;9.324;2023-01-10T08:14:44;5.80;99.90
36132;DHT22;22185;48.738;9.324;2023-01-10T08:16:45;5.90;99.90
36132;DHT22;22185;48.738;9.324;2023-01-10T08:18:47;5.90;99.90
36132;DHT22;22185;48.738;9.324;2023-01-10T08:20:51;5.90;99.90
36132;DHT22;22185;48.738;9.324;2023-01-10T08:23:02;5.90;99.90
36132;DHT22;22185;48.738;9.324;2023-01-10T08:25:07;5.90;99.90
36132;DHT22;22185;48.738;9.324;2023-01-10T08:27:13;6.00;99.90
36132;DHT22;22185;48.738;9.324;2023-01-10T08:29:27;6.00;99.90
36132;DHT22;22185;48.738;9.324;2023-01-10T08:31:32;5.90;99.90
36132;DHT22;22185;48.738;9.324;2023-01-10T08:33:37;6.00;99.90
36132;DHT22;22185;48.738;9.324;2023-01-10T08:35:47;6.00;99.90
36132;DHT22;22185;48.738;9.324;2023-01-10T08:37:59;6.00;99.90
36132;DHT22;22185;48.738;9.324;2023-01-10T08:40:04;6.00;99.90
36132;DHT22;22185;48.738;9.324;2023-01-10T08:42:06;6.00;99.90
36132;DHT22;22185;48.738;9.324;2023-01-10T08:44:07;6.00;99.90
36132;DHT22;22185;48.738;9.324;2023-01-10T08:46:09;6.10;99.90
36132;DHT22;22185;48.738;9.324;2023-01-10T08:48:11;6.10;99.90
36132;DHT22;22185;48.738;9.324;2023-01-10T08:50:13;6.10;99.90
36132;DHT22;22185;48.738;9.324;2023-01-10T08:52:15;6.20;99.90
36132;DHT22;22185;48.738;9.324;2023-01-10T08:54:17;6.20;99.90
36132;DHT22;22185;48.738;9.324;2023-01-10T08:56:19;6.20;99.90
36132;DHT22;22185;48.738;9.324;2023-01-10T08:58:21;6.20;99.90
36132;DHT22;22185;48.738;9.324;2023-01-10T09:00:23;6.20;99.90
36132;DHT22;22185;48.738;9.324;2023-01-10T09:02:24;6.20;99.90
36132;DHT22;22185;48.738;9.324;2023-01-10T09:04:26;6.30;99.90
36132;DHT22;22185;48.738;9.324;2023-01-10T09:06:33;6.20;99.90
36132;DHT22;22185;48.738;9.324;2023-01-10T09:08:35;6.10;99.90
36132;DHT22;22185;48.738;9.324;2023-01-10T09:10:37;6.10;99.90
36132;DHT22;22185;48.738;9.324;2023-01-10T09:12:39;6.10;99.90
36132;DHT22;22185;48.738;9.324;2023-01-10T09:14:55;6.20;99.90
36132;DHT22;22185;48.738;9.324;2023-01-10T09:16:57;6.20;99.90
36132;DHT22;22185;48.738;9.324;2023-01-10T09:18:59;6.20;99.90
36132;DHT22;22185;48.738;9.324;2023-01-10T09:21:01;6.20;99.90
36132;DHT22;22185;48.738;9.324;2023-01-10T09:23:07;6.20;99.90
36132;DHT22;22185;48.738;9.324;2023-01-10T09:25:09;6.20;99.90
36132;DHT22;22185;48.738;9.324;2023-01-10T09:27:11;6.20;99.90
36132;DHT22;22185;48.738;9.324;2023-01-10T09:29:13;6.20;99.90
36132;DHT22;22185;48.738;9.324;2023-01-10T09:31:15;6.30;99.90
36132;DHT22;22185;48.738;9.324;2023-01-10T09:33:17;6.30;99.90
36132;DHT22;22185;48.738;9.324;2023-01-10T09:35:19;6.20;99.90
36132;DHT22;22185;48.738;9.324;2023-01-10T09:37:21;6.20;99.90
36132;DHT22;22185;48.738;9.324;2023-01-10T09:39:23;6.20;99.90
36132;DHT22;22185;48.738;9.324;2023-01-10T09:41:46;6.30;99.90
36132;DHT22;22185;48.738;9.324;2023-01-10T09:44:08;6.30;99.90
36132;DHT22;22185;48.738;9.324;2023-01-10T09:48:50;6.20;99.90
36132;DHT22;22185;48.738;9.324;2023-01-10T09:53:10;6.10;99.90
36132;DHT22;22185;48.738;9.324;2023-01-10T09:57:22;6.10;99.90
36132;DHT22;22185;48.738;9.324;2023-01-10T09:59:36;6.20;99.90
36132;DHT22;22185;48.738;9.324;2023-01-10T10:01:39;6.30;99.90
36132;DHT22;22185;48.738;9.324;2023-01-10T10:06:10;6.50;99.90
36132;DHT22;22185;48.738;9.324;2023-01-10T10:08:17;6.60;99.90
36132;DHT22;22185;48.738;9.324;2023-01-10T10:10:37;6.50;99.90
36132;DHT22;22185;48.738;9.324;2023-01-10T10:13:01;6.40;99.90
36132;DHT22;22185;48.738;9.324;2023-01-10T10:15:10;6.30;99.90
36132;DHT22;22185;48.738;9.324;2023-01-10T10:32:29;6.50;99.90
36132;DHT22;22185;48.738;9.324;2023-01-10T10:34:46;6.60;99.90
36132;DHT22;22185;48.738;9.324;2023-01-10T10:36:58;6.60;99.90
36132;DHT22;22185;48.738;9.324;2023-01-10T10:39:01;6.50;99.90
36132;DHT22;22185;48.738;9.324;2023-01-10T10:41:58;6.40;99.90
36132;DHT22;22185;48.738;9.324;2023-01-10T10:43:36;6.40;99.90
36132;DHT22;22185;48.738;9.324;2023-01-10T10:46:07;6.50;99.90
36132;DHT22;22185;48.738;9.324;2023-01-10T10:50:34;6.60;99.90
36132;DHT22;22185;48.738;9.324;2023-01-10T10:52:36;6.60;99.90
36132;DHT22;22185;48.738;9.324;2023-01-10T10:54:38;6.40;99.90
36132;DHT22;22185;48.738;9.324;2023-01-10T10:56:40;6.50;99.90
36132;DHT22;22185;48.738;9.324;2023-01-10T10:58:43;6.50;99.90
36132;DHT22;22185;48.738;9.324;2023-01-10T11:00:46;6.40;99.90
36132;DHT22;22185;48.738;9.324;2023-01-10T11:02:52;6.50;99.90
36132;DHT22;22185;48.738;9.324;2023-01-10T11:05:12;6.60;99.90
36132;DHT22;22185;48.738;9.324;2023-01-10T11:07:16;6.70;99.90
36132;DHT22;22185;48.738;9.324;2023-01-10T11:09:23;6.60;99.90
36132;DHT22;22185;48.738;9.324;2023-01-10T11:11:47;6.80;99.90
36132;DHT22;22185;48.738;9.324;2023-01-10T11:13:55;6.80;99.90
36132;DHT22;22185;48.738;9.324;2023-01-10T11:15:58;6.70;99.90
36132;DHT22;22185;48.738;9.324;2023-01-10T11:20:17;6.80;99.90
36132;DHT22;22185;48.738;9.324;2023-01-10T11:22:20;6.70;99.90
36132;DHT22;22185;48.738;9.324;2023-01-10T11:24:31;6.70;99.90
36132;DHT22;22185;48.738;9.324;2023-01-10T11:26:37;6.80;99.90
36132;DHT22;22185;48.738;9.324;2023-01-10T11:28:41;6.80;99.90
36132;DHT22;22185;48.738;9.324;2023-01-10T11:30:47;6.80;99.90
36132;DHT22;22185;48.738;9.324;2023-01-10T11:32:56;6.90;99.90
36132;DHT22;22185;48.738;9.324;2023-01-10T11:35:06;7.10;99.90
36132;DHT22;22185;48.738;9.324;2023-01-10T11:39:17;7.10;99.90
36132;DHT22;22185;48.738;9.324;2023-01-10T11:41:24;6.90;99.90
36132;DHT22;22185;48.738;9.324;2023-01-10T11:43:38;6.80;99.90
36132;DHT22;22185;48.738;9.324;2023-01-10T11:49:04;6.60;99.90
36132;DHT22;22185;48.738;9.324;2023-01-10T11:51:21;6.50;99.90
36132;DHT22;22185;48.738;9.324;2023-01-10T11:53:39;6.50;99.90
36132;DHT22;22185;48.738;9.324;2023-01-10T11:55:45;6.60;99.90
36132;DHT22;22185;48.738;9.324;2023-01-10T12:00:02;6.70;99.90
36132;DHT22;22185;48.738;9.324;2023-01-10T12:02:25;6.80;99.90
36132;DHT22;22185;48.738;9.324;2023-01-10T12:04:33;6.90;99.90
36132;DHT22;22185;48.738;9.324;2023-01-10T12:06:43;7.00;99.90
36132;DHT22;22185;48.738;9.324;2023-01-10T12:08:46;6.90;99.90
36132;DHT22;22185;48.738;9.324;2023-01-10T12:11:05;6.90;99.90
36132;DHT22;22185;48.738;9.324;2023-01-10T12:13:16;6.90;99.90
36132;DHT22;22185;48.738;9.324;2023-01-10T12:15:29;6.90;99.90
36132;DHT22;22185;48.738;9.324;2023-01-10T12:17:34;6.90;99.90
36132;DHT22;22185;48.738;9.324;2023-01-10T12:19:37;7.00;99.90
36132;DHT22;22185;48.738;9.324;2023-01-10T12:21:43;7.00;99.90
36132;DHT22;22185;48.738;9.324;2023-01-10T12:23:47;7.00;99.90
36132;DHT22;22185;48.738;9.324;2023-01-10T12:25:51;7.00;99.90
36132;DHT22;22185;48.738;9.324;2023-01-10T12:28:20;7.00;99.90
36132;DHT22;22185;48.738;9.324;2023-01-10T12:30:39;7.30;99.90
36132;DHT22;22185;48.738;9.324;2023-01-10T12:32:47;7.30;99.90
36132;DHT22;22185;48.738;9.324;2023-01-10T12:34:59;7.40;99.90
36132;DHT22;22185;48.738;9.324;2023-01-10T12:39:55;7.70;99.90
36132;DHT22;22185;48.738;9.324;2023-01-10T12:46:47;7.70;99.90
36132;DHT22;22185;48.738;9.324;2023-01-10T12:49:17;7.60;99.90
36132;DHT22;22185;48.738;9.324;2023-01-10T12:51:23;7.70;99.90
36132;DHT22;22185;48.738;9.324;2023-01-10T12:53:34;7.80;99.90
36132;DHT22;22185;48.738;9.324;2023-01-10T12:55:39;8.10;99.90
36132;DHT22;22185;48.738;9.324;2023-01-10T12:57:47;8.70;99.90
36132;DHT22;22185;48.738;9.324;2023-01-10T12:59:53;9.00;99.90
36132;DHT22;22185;48.738;9.324;2023-01-10T13:01:57;9.50;99.90
36132;DHT22;22185;48.738;9.324;2023-01-10T13:04:09;9.50;99.90
36132;DHT22;22185;48.738;9.324;2023-01-10T13:06:30;9.00;99.90
36132;DHT22;22185;48.738;9.324;2023-01-10T13:08:34;8.80;99.90
36132;DHT22;22185;48.738;9.324;2023-01-10T13:10:40;8.70;99.90
36132;DHT22;22185;48.738;9.324;2023-01-10T13:12:46;8.50;99.90
36132;DHT22;22185;48.738;9.324;2023-01-10T13:14:56;8.10;99.90
36132;DHT22;22185;48.738;9.324;2023-01-10T13:19:27;8.10;99.90
36132;DHT22;22185;48.738;9.324;2023-01-10T13:21:30;8.00;99.90
36132;DHT22;22185;48.738;9.324;2023-01-10T13:23:38;8.40;99.90
36132;DHT22;22185;48.738;9.324;2023-01-10T13:25:53;8.70;99.90
36132;DHT22;22185;48.738;9.324;2023-01-10T13:28:28;8.90;99.90
36132;DHT22;22185;48.738;9.324;2023-01-10T13:30:34;9.30;99.90
36132;DHT22;22185;48.738;9.324;2023-01-10T13:32:37;9.10;99.90
36132;DHT22;22185;48.738;9.324;2023-01-10T13:34:39;8.70;99.90
36132;DHT22;22185;48.738;9.324;2023-01-10T13:36:50;8.40;99.90
36132;DHT22;22185;48.738;9.324;2023-01-10T13:39:00;8.00;99.90
36132;DHT22;22185;48.738;9.324;2023-01-10T13:41:08;7.80;99.90
36132;DHT22;22185;48.738;9.324;2023-01-10T13:45:37;7.80;99.90
36132;DHT22;22185;48.738;9.324;2023-01-10T13:49:42;7.60;99.90
36132;DHT22;22185;48.738;9.324;2023-01-10T13:52:30;7.70;99.90
36132;DHT22;22185;48.738;9.324;2023-01-10T13:54:32;7.70;99.90
36132;DHT22;22185;48.738;9.324;2023-01-10T13:56:36;7.80;99.90
36132;DHT22;22185;48.738;9.324;2023-01-10T13:58:40;8.00;99.90
36132;DHT22;22185;48.738;9.324;2023-01-10T14:01:01;8.20;99.90
36132;DHT22;22185;48.738;9.324;2023-01-10T14:03:51;8.40;99.90
36132;DHT22;22185;48.738;9.324;2023-01-10T14:05:53;8.40;99.90
36132;DHT22;22185;48.738;9.324;2023-01-10T14:07:55;8.60;99.90
36132;DHT22;22185;48.738;9.324;2023-01-10T14:10:07;8.60;99.90
36132;DHT22;22185;48.738;9.324;2023-01-10T14:14:33;8.60;99.90
36132;DHT22;22185;48.738;9.324;2023-01-10T14:16:39;8.70;99.90
36132;DHT22;22185;48.738;9.324;2023-01-10T14:18:40;9.00;99.90
36132;DHT22;22185;48.738;9.324;2023-01-10T14:20:56;9.40;99.90
36132;DHT22;22185;48.738;9.324;2023-01-10T14:23:15;9.60;99.90
36132;DHT22;22185;48.738;9.324;2023-01-10T14:25:20;9.30;99.90
36132;DHT22;22185;48.738;9.324;2023-01-10T14:27:22;9.30;99.90
36132;DHT22;22185;48.738;9.324;2023-01-10T14:29:26;9.00;99.90
36132;DHT22;22185;48.738;9.324;2023-01-10T14:31:31;9.00;99.90
36132;DHT22;22185;48.738;9.324;2023-01-10T14:33:35;8.90;99.90
36132;DHT22;22185;48.738;9.324;2023-01-10T14:35:41;8.80;99.90
36132;DHT22;22185;48.738;9.324;2023-01-10T14:37:52;8.50;99.90
36132;DHT22;22185;48.738;9.324;2023-01-10T14:39:56;8.30;99.90
36132;DHT22;22185;48.738;9.324;2023-01-10T14:42:01;8.30;99.90
36132;DHT22;22185;48.738;9.324;2023-01-10T14:46:54;8.20;99.90
36132;DHT22;22185;48.738;9.324;2023-01-10T14:48:56;8.10;99.90
36132;DHT22;22185;48.738;9.324;2023-01-10T14:53:25;8.00;99.90
36132;DHT22;22185;48.738;9.324;2023-01-10T14:55:26;7.90;99.90
36132;DHT22;22185;48.738;9.324;2023-01-10T14:57:28;7.80;99.90
36132;DHT22;22185;48.738;9.324;2023-01-10T14:59:32;7.80;99.90
36132;DHT22;22185;48.738;9.324;2023-01-10T15:01:35;7.80;99.90
36132;DHT22;22185;48.738;9.324;2023-01-10T15:03:44;7.80;99.90
36132;DHT22;22185;48.738;9.324;2023-01-10T15:05:50;7.80;99.90
36132;DHT22;22185;48.738;9.324;2023-01-10T15:08:13;7.80;99.90